NSZ66D EKCH-EKBI
Flight info
| Callsign | NSZ66D |
|---|---|
| Flight time | 0h 29m |
| Altitude | 14000 |
| Route | ODDON DCT LOKSA |
| Aircraft | B38M/M-SDE1FGHILORVWXY/HB1 |
Departure
| Time | 2026-04-23 15:48 |
|---|---|
| Airport | Copenhagen Kastrup Airport (EKCH) |
Arrival
| Time | 2026-04-23 16:18 |
|---|---|
| Airport | Billund Airport (EKBI) |
| Time | Latitude | Longitude | Altitude | Speed | Heading |
|---|---|---|---|---|---|
| 2026-04-23 15:17 | 55.62812 | 12.64216 | 19 ft | 0 kts | 124° |
| 2026-04-23 15:35 | 55.62819 | 12.64197 | 22 ft | 3 kts | 119° |
| 2026-04-23 15:35 | 55.62827 | 12.64165 | 19 ft | 3 kts | 108° |
| 2026-04-23 15:35 | 55.62832 | 12.64130 | 19 ft | 3 kts | 97° |
| 2026-04-23 15:36 | 55.62833 | 12.64095 | 19 ft | 3 kts | 82° |
| 2026-04-23 15:36 | 55.62828 | 12.64062 | 19 ft | 3 kts | 68° |
| 2026-04-23 15:36 | 55.62821 | 12.64029 | 21 ft | 3 kts | 77° |
| 2026-04-23 15:36 | 55.62818 | 12.63994 | 19 ft | 3 kts | 89° |
| 2026-04-23 15:37 | 55.62820 | 12.63958 | 19 ft | 3 kts | 101° |
| 2026-04-23 15:37 | 55.62825 | 12.63924 | 19 ft | 3 kts | 111° |
| 2026-04-23 15:37 | 55.62830 | 12.63902 | 19 ft | 3 kts | 113° |
| 2026-04-23 15:37 | 55.62838 | 12.63866 | 19 ft | 1 kts | 104° |
| 2026-04-23 15:38 | 55.62838 | 12.63865 | 19 ft | 2 kts | 104° |
| 2026-04-23 15:40 | 55.62836 | 12.63877 | 19 ft | 2 kts | 104° |
| 2026-04-23 15:40 | 55.62830 | 12.63911 | 19 ft | 4 kts | 115° |
| 2026-04-23 15:41 | 55.62808 | 12.63951 | 19 ft | 5 kts | 148° |
| 2026-04-23 15:41 | 55.62768 | 12.63948 | 19 ft | 7 kts | 206° |
| 2026-04-23 15:41 | 55.62722 | 12.63913 | 19 ft | 7 kts | 175° |
| 2026-04-23 15:41 | 55.62682 | 12.63973 | 19 ft | 8 kts | 123° |
| 2026-04-23 15:42 | 55.62647 | 12.64068 | 20 ft | 10 kts | 122° |
| 2026-04-23 15:42 | 55.62605 | 12.64186 | 19 ft | 12 kts | 123° |
| 2026-04-23 15:42 | 55.62573 | 12.64272 | 22 ft | 13 kts | 123° |
| 2026-04-23 15:42 | 55.62519 | 12.64417 | 20 ft | 15 kts | 124° |
| 2026-04-23 15:43 | 55.62458 | 12.64577 | 21 ft | 16 kts | 124° |
| 2026-04-23 15:43 | 55.62395 | 12.64747 | 21 ft | 16 kts | 123° |
| 2026-04-23 15:43 | 55.62344 | 12.64884 | 22 ft | 11 kts | 132° |
| 2026-04-23 15:43 | 55.62277 | 12.64859 | 21 ft | 11 kts | 212° |
| 2026-04-23 15:44 | 55.62207 | 12.64773 | 21 ft | 13 kts | 214° |
| 2026-04-23 15:44 | 55.62130 | 12.64685 | 22 ft | 14 kts | 212° |
| 2026-04-23 15:44 | 55.62041 | 12.64582 | 20 ft | 16 kts | 214° |
| 2026-04-23 15:44 | 55.61933 | 12.64502 | 19 ft | 18 kts | 185° |
| 2026-04-23 15:45 | 55.61808 | 12.64540 | 19 ft | 19 kts | 168° |
| 2026-04-23 15:45 | 55.61680 | 12.64566 | 19 ft | 18 kts | 195° |
| 2026-04-23 15:45 | 55.61569 | 12.64446 | 20 ft | 19 kts | 213° |
| 2026-04-23 15:45 | 55.61451 | 12.64312 | 22 ft | 21 kts | 212° |
| 2026-04-23 15:46 | 55.61325 | 12.64167 | 20 ft | 22 kts | 214° |
| 2026-04-23 15:46 | 55.61193 | 12.64014 | 20 ft | 23 kts | 212° |
| 2026-04-23 15:46 | 55.61053 | 12.63854 | 21 ft | 24 kts | 213° |
| 2026-04-23 15:46 | 55.60917 | 12.63696 | 21 ft | 16 kts | 213° |
| 2026-04-23 15:47 | 55.60832 | 12.63599 | 19 ft | 11 kts | 208° |
| 2026-04-23 15:47 | 55.60762 | 12.63639 | 20 ft | 12 kts | 133° |
| 2026-04-23 15:47 | 55.60703 | 12.63755 | 22 ft | 13 kts | 132° |
| 2026-04-23 15:47 | 55.60690 | 12.63889 | 25 ft | 12 kts | 50° |
| 2026-04-23 15:48 | 55.60858 | 12.64153 | 23 ft | 71 kts | 41° |
| 2026-04-23 15:48 | 55.61436 | 12.65048 | 24 ft | 148 kts | 41° |
| 2026-04-23 15:48 | 55.62269 | 12.66397 | 585 ft | 166 kts | 45° |
| 2026-04-23 15:48 | 55.63155 | 12.67832 | 1430 ft | 180 kts | 45° |
| 2026-04-23 15:49 | 55.64115 | 12.69339 | 2168 ft | 189 kts | 43° |
| 2026-04-23 15:49 | 55.65225 | 12.70784 | 2790 ft | 206 kts | 31° |
| 2026-04-23 15:49 | 55.66626 | 12.71638 | 3513 ft | 221 kts | 14° |
| 2026-04-23 15:49 | 55.68181 | 12.71772 | 4234 ft | 234 kts | 355° |
| 2026-04-23 15:50 | 55.69865 | 12.70912 | 4647 ft | 264 kts | 341° |
| 2026-04-23 15:50 | 55.71594 | 12.69772 | 5448 ft | 270 kts | 342° |
| 2026-04-23 15:50 | 55.73518 | 12.69270 | 6238 ft | 282 kts | 5° |
| 2026-04-23 15:50 | 55.75498 | 12.69242 | 7256 ft | 288 kts | 359° |
| 2026-04-23 15:51 | 55.77511 | 12.69079 | 8088 ft | 294 kts | 358° |
| 2026-04-23 15:51 | 55.79560 | 12.68843 | 9025 ft | 299 kts | 351° |
| 2026-04-23 15:51 | 55.81454 | 12.67375 | 9933 ft | 300 kts | 318° |
| 2026-04-23 15:51 | 55.82698 | 12.64442 | 10714 ft | 303 kts | 288° |
| 2026-04-23 15:52 | 55.83016 | 12.60732 | 11169 ft | 310 kts | 261° |
| 2026-04-23 15:52 | 55.82584 | 12.56905 | 11703 ft | 322 kts | 255° |
| 2026-04-23 15:52 | 55.82106 | 12.52959 | 12401 ft | 329 kts | 256° |
| 2026-04-23 15:52 | 55.81631 | 12.49000 | 13295 ft | 329 kts | 255° |
| 2026-04-23 15:53 | 55.81147 | 12.44985 | 13808 ft | 332 kts | 255° |
| 2026-04-23 15:53 | 55.80664 | 12.40989 | 13972 ft | 327 kts | 255° |
| 2026-04-23 15:53 | 55.80182 | 12.37056 | 14121 ft | 325 kts | 255° |
| 2026-04-23 15:53 | 55.79702 | 12.33125 | 14164 ft | 324 kts | 255° |
| 2026-04-23 15:54 | 55.79223 | 12.29196 | 14155 ft | 322 kts | 255° |
| 2026-04-23 15:54 | 55.78752 | 12.25325 | 14158 ft | 323 kts | 255° |
| 2026-04-23 15:54 | 55.78273 | 12.21424 | 14147 ft | 322 kts | 255° |
| 2026-04-23 15:54 | 55.77795 | 12.17517 | 14161 ft | 323 kts | 255° |
| 2026-04-23 15:55 | 55.77315 | 12.13585 | 14158 ft | 325 kts | 255° |
| 2026-04-23 15:55 | 55.76966 | 12.09631 | 14131 ft | 325 kts | 266° |
| 2026-04-23 15:55 | 55.77013 | 12.05598 | 14179 ft | 328 kts | 267° |
| 2026-04-23 15:55 | 55.77020 | 12.01565 | 14157 ft | 327 kts | 267° |
| 2026-04-23 15:56 | 55.77028 | 11.97521 | 14158 ft | 327 kts | 267° |
| 2026-04-23 15:56 | 55.77036 | 11.93489 | 14157 ft | 327 kts | 267° |
| 2026-04-23 15:56 | 55.77042 | 11.89502 | 14155 ft | 328 kts | 266° |
| 2026-04-23 15:56 | 55.77047 | 11.85465 | 14161 ft | 327 kts | 267° |
| 2026-04-23 15:57 | 55.77052 | 11.81409 | 14165 ft | 327 kts | 267° |
| 2026-04-23 15:57 | 55.77055 | 11.77308 | 14156 ft | 328 kts | 267° |
| 2026-04-23 15:57 | 55.77056 | 11.73262 | 14156 ft | 326 kts | 267° |
| 2026-04-23 15:57 | 55.77057 | 11.69230 | 14151 ft | 326 kts | 267° |
| 2026-04-23 15:58 | 55.77055 | 11.65169 | 14154 ft | 328 kts | 267° |
| 2026-04-23 15:58 | 55.77053 | 11.61114 | 14149 ft | 327 kts | 267° |
| 2026-04-23 15:58 | 55.77049 | 11.57133 | 14133 ft | 326 kts | 266° |
| 2026-04-23 15:58 | 55.77043 | 11.53097 | 14141 ft | 327 kts | 267° |
| 2026-04-23 15:59 | 55.77036 | 11.49069 | 14159 ft | 328 kts | 266° |
| 2026-04-23 15:59 | 55.77028 | 11.45004 | 14165 ft | 327 kts | 267° |
| 2026-04-23 15:59 | 55.77020 | 11.40973 | 14141 ft | 326 kts | 266° |
| 2026-04-23 15:59 | 55.77009 | 11.36940 | 14149 ft | 327 kts | 266° |
| 2026-04-23 16:00 | 55.76998 | 11.32907 | 14150 ft | 326 kts | 266° |
| 2026-04-23 16:00 | 55.76983 | 11.28873 | 14132 ft | 327 kts | 266° |
| 2026-04-23 16:00 | 55.76970 | 11.24837 | 14150 ft | 326 kts | 266° |
| 2026-04-23 16:00 | 55.76954 | 11.20806 | 14144 ft | 326 kts | 266° |
| 2026-04-23 16:01 | 55.76938 | 11.16841 | 14146 ft | 326 kts | 266° |
| 2026-04-23 16:01 | 55.76918 | 11.12797 | 14136 ft | 325 kts | 266° |
| 2026-04-23 16:01 | 55.76899 | 11.08777 | 14157 ft | 327 kts | 266° |
| 2026-04-23 16:01 | 55.76879 | 11.04759 | 14134 ft | 325 kts | 266° |
| 2026-04-23 16:02 | 55.76856 | 11.00751 | 14139 ft | 325 kts | 266° |
| 2026-04-23 16:02 | 55.76833 | 10.96732 | 14142 ft | 324 kts | 266° |
| 2026-04-23 16:02 | 55.76808 | 10.92724 | 14136 ft | 324 kts | 266° |
| 2026-04-23 16:02 | 55.76782 | 10.88720 | 14136 ft | 321 kts | 266° |
| 2026-04-23 16:03 | 55.76757 | 10.84844 | 14133 ft | 307 kts | 266° |
| 2026-04-23 16:03 | 55.76730 | 10.81142 | 14122 ft | 292 kts | 266° |
| 2026-04-23 16:03 | 55.76705 | 10.77599 | 13980 ft | 283 kts | 266° |
| 2026-04-23 16:03 | 55.76678 | 10.74146 | 13759 ft | 277 kts | 265° |
| 2026-04-23 16:04 | 55.76650 | 10.70698 | 13453 ft | 282 kts | 266° |
| 2026-04-23 16:04 | 55.76621 | 10.67188 | 13156 ft | 287 kts | 266° |
| 2026-04-23 16:04 | 55.76590 | 10.63681 | 12852 ft | 288 kts | 266° |
| 2026-04-23 16:04 | 55.76560 | 10.60117 | 12548 ft | 289 kts | 266° |
| 2026-04-23 16:05 | 55.76538 | 10.57712 | 12332 ft | 289 kts | 266° |
| 2026-04-23 16:05 | 55.76493 | 10.52975 | 11905 ft | 289 kts | 266° |
| 2026-04-23 16:05 | 55.76458 | 10.49411 | 11588 ft | 289 kts | 266° |
| 2026-04-23 16:05 | 55.76422 | 10.45807 | 11270 ft | 287 kts | 266° |
| 2026-04-23 16:06 | 55.76386 | 10.42263 | 10957 ft | 285 kts | 266° |
| 2026-04-23 16:06 | 55.76348 | 10.38787 | 10640 ft | 284 kts | 267° |
| 2026-04-23 16:06 | 55.76311 | 10.35254 | 10383 ft | 281 kts | 267° |
| 2026-04-23 16:06 | 55.76273 | 10.31884 | 10239 ft | 272 kts | 267° |
| 2026-04-23 16:07 | 55.76236 | 10.28570 | 10066 ft | 266 kts | 267° |
| 2026-04-23 16:07 | 55.76198 | 10.25297 | 9757 ft | 264 kts | 267° |
| 2026-04-23 16:07 | 55.76158 | 10.22048 | 9455 ft | 263 kts | 268° |
| 2026-04-23 16:07 | 55.76119 | 10.18807 | 9152 ft | 261 kts | 268° |
| 2026-04-23 16:08 | 55.76077 | 10.15584 | 8866 ft | 257 kts | 268° |
| 2026-04-23 16:08 | 55.76029 | 10.12422 | 8531 ft | 263 kts | 269° |
| 2026-04-23 16:08 | 55.75989 | 10.09218 | 8266 ft | 263 kts | 269° |
| 2026-04-23 16:08 | 55.75947 | 10.05898 | 8183 ft | 276 kts | 268° |
| 2026-04-23 16:09 | 55.75904 | 10.02473 | 7760 ft | 286 kts | 268° |
| 2026-04-23 16:09 | 55.75847 | 9.98839 | 7372 ft | 298 kts | 268° |
| 2026-04-23 16:09 | 55.75807 | 9.95233 | 7023 ft | 288 kts | 270° |
| 2026-04-23 16:09 | 55.75769 | 9.91748 | 6649 ft | 277 kts | 269° |
| 2026-04-23 16:10 | 55.75707 | 9.88381 | 6371 ft | 267 kts | 268° |
| 2026-04-23 16:10 | 55.75571 | 9.85126 | 6007 ft | 263 kts | 265° |
| 2026-04-23 16:10 | 55.75549 | 9.81949 | 5776 ft | 258 kts | 272° |
| 2026-04-23 16:10 | 55.75555 | 9.78815 | 5571 ft | 254 kts | 269° |
| 2026-04-23 16:11 | 55.75513 | 9.75862 | 5470 ft | 230 kts | 268° |
| 2026-04-23 16:11 | 55.75456 | 9.72924 | 5352 ft | 244 kts | 269° |
| 2026-04-23 16:11 | 55.75392 | 9.69847 | 5010 ft | 249 kts | 268° |
| 2026-04-23 16:11 | 55.75352 | 9.66847 | 4780 ft | 237 kts | 269° |
| 2026-04-23 16:12 | 55.75311 | 9.64007 | 4616 ft | 223 kts | 268° |
| 2026-04-23 16:12 | 55.75272 | 9.61330 | 4504 ft | 210 kts | 268° |
| 2026-04-23 16:12 | 55.75257 | 9.58759 | 4449 ft | 207 kts | 271° |
| 2026-04-23 16:12 | 55.75259 | 9.56208 | 4306 ft | 205 kts | 266° |
| 2026-04-23 16:13 | 55.75212 | 9.53669 | 4069 ft | 204 kts | 268° |
| 2026-04-23 16:13 | 55.75088 | 9.48691 | 3566 ft | 204 kts | 266° |
| 2026-04-23 16:13 | 55.75011 | 9.46173 | 3326 ft | 204 kts | 266° |
| 2026-04-23 16:14 | 55.74934 | 9.43658 | 3054 ft | 204 kts | 265° |
| 2026-04-23 16:14 | 55.74857 | 9.41138 | 2777 ft | 198 kts | 266° |
| 2026-04-23 16:14 | 55.74779 | 9.38746 | 2540 ft | 187 kts | 266° |
| 2026-04-23 16:14 | 55.74710 | 9.36547 | 2297 ft | 171 kts | 266° |
| 2026-04-23 16:15 | 55.74644 | 9.34476 | 2084 ft | 166 kts | 266° |
| 2026-04-23 16:15 | 55.74581 | 9.32476 | 1881 ft | 155 kts | 266° |
| 2026-04-23 16:15 | 55.74522 | 9.30609 | 1725 ft | 148 kts | 266° |
| 2026-04-23 16:15 | 55.74464 | 9.28829 | 1482 ft | 144 kts | 266° |
| 2026-04-23 16:16 | 55.74408 | 9.27071 | 1295 ft | 142 kts | 266° |
| 2026-04-23 16:16 | 55.74344 | 9.25336 | 1046 ft | 140 kts | 266° |
| 2026-04-23 16:16 | 55.74305 | 9.23609 | 846 ft | 139 kts | 267° |
| 2026-04-23 16:16 | 55.74245 | 9.21876 | 679 ft | 141 kts | 265° |
| 2026-04-23 16:17 | 55.74189 | 9.20146 | 489 ft | 140 kts | 266° |
| 2026-04-23 16:17 | 55.74136 | 9.18425 | 297 ft | 139 kts | 266° |
| 2026-04-23 16:17 | 55.74099 | 9.17294 | 223 ft | 129 kts | 266° |
| 2026-04-23 16:17 | 55.74062 | 9.15939 | 219 ft | 72 kts | 268° |
| 2026-04-23 16:18 | 55.74037 | 9.15259 | 219 ft | 52 kts | 266° |
| 2026-04-23 16:18 | 55.74022 | 9.14805 | 218 ft | 24 kts | 266° |
| 2026-04-23 16:18 | 55.74015 | 9.14607 | 218 ft | 14 kts | 266° |
| 2026-04-23 16:18 | 55.74030 | 9.14512 | 222 ft | 8 kts | 323° |
| 2026-04-23 16:19 | 55.74081 | 9.14493 | 222 ft | 8 kts | 352° |
| 2026-04-23 16:19 | 55.74141 | 9.14488 | 223 ft | 9 kts | 358° |
| 2026-04-23 16:19 | 55.74212 | 9.14483 | 218 ft | 11 kts | 357° |
| 2026-04-23 16:19 | 55.74297 | 9.14473 | 221 ft | 13 kts | 355° |
| 2026-04-23 16:20 | 55.74371 | 9.14465 | 218 ft | 7 kts | 358° |
| 2026-04-23 16:20 | 55.74425 | 9.14482 | 218 ft | 9 kts | 39° |
| 2026-04-23 16:20 | 55.74443 | 9.14580 | 223 ft | 8 kts | 84° |
| 2026-04-23 16:20 | 55.74446 | 9.14645 | 220 ft | 3 kts | 85° |
| 2026-04-23 16:21 | 55.74453 | 9.14687 | 224 ft | 4 kts | 49° |
| 2026-04-23 16:21 | 55.74477 | 9.14689 | 219 ft | 4 kts | 353° |
| 2026-04-23 16:21 | 55.74509 | 9.14686 | 219 ft | 3 kts | 357° |
| 2026-04-23 16:21 | 55.74529 | 9.14684 | 218 ft | 2 kts | 356° |
| 2026-04-23 16:22 | 55.74530 | 9.14684 | 218 ft | 0 kts | 356° |